sensor_id;sensor_type;location;lat;lon;timestamp;P1;durP1;ratioP1;P2;durP2;ratioP2
38935;SDS011;25541;47.458;9.644;2022-08-14T12:11:58;2.42;;;1.15;;
38935;SDS011;25541;47.458;9.644;2022-08-14T12:14:24;1.83;;;0.80;;
38935;SDS011;25541;47.458;9.644;2022-08-14T12:17:04;3.13;;;0.98;;
38935;SDS011;25541;47.458;9.644;2022-08-14T12:19:45;1.50;;;0.88;;
38935;SDS011;25541;47.458;9.644;2022-08-14T12:22:55;2.05;;;0.82;;
38935;SDS011;25541;47.458;9.644;2022-08-14T12:25:21;1.98;;;0.75;;
38935;SDS011;25541;47.458;9.644;2022-08-14T12:27:48;1.77;;;1.08;;
38935;SDS011;25541;47.458;9.644;2022-08-14T12:33:04;4.53;;;1.13;;
38935;SDS011;25541;47.458;9.644;2022-08-14T12:35:38;5.82;;;0.85;;
38935;SDS011;25541;47.458;9.644;2022-08-14T12:38:06;2.45;;;0.88;;
38935;SDS011;25541;47.458;9.644;2022-08-14T12:40:47;1.60;;;1.08;;
38935;SDS011;25541;47.458;9.644;2022-08-14T12:43:15;1.92;;;1.48;;
38935;SDS011;25541;47.458;9.644;2022-08-14T12:45:46;2.88;;;1.00;;
38935;SDS011;25541;47.458;9.644;2022-08-14T12:48:14;3.53;;;1.33;;
38935;SDS011;25541;47.458;9.644;2022-08-14T12:50:42;6.28;;;1.33;;
38935;SDS011;25541;47.458;9.644;2022-08-14T12:53:08;2.35;;;0.80;;
38935;SDS011;25541;47.458;9.644;2022-08-14T12:55:35;1.42;;;0.95;;
38935;SDS011;25541;47.458;9.644;2022-08-14T12:58:06;2.22;;;1.30;;
38935;SDS011;25541;47.458;9.644;2022-08-14T13:00:34;1.75;;;0.80;;
38935;SDS011;25541;47.458;9.644;2022-08-14T13:03:02;2.28;;;1.00;;
38935;SDS011;25541;47.458;9.644;2022-08-14T13:05:33;2.53;;;1.05;;
38935;SDS011;25541;47.458;9.644;2022-08-14T13:08:00;3.42;;;0.82;;
38935;SDS011;25541;47.458;9.644;2022-08-14T13:10:31;2.50;;;1.05;;
38935;SDS011;25541;47.458;9.644;2022-08-14T13:12:58;2.45;;;0.82;;
38935;SDS011;25541;47.458;9.644;2022-08-14T13:15:24;2.00;;;0.65;;
38935;SDS011;25541;47.458;9.644;2022-08-14T13:17:52;2.88;;;1.02;;
38935;SDS011;25541;47.458;9.644;2022-08-14T13:20:24;4.60;;;1.20;;
38935;SDS011;25541;47.458;9.644;2022-08-14T13:22:52;3.40;;;0.82;;
38935;SDS011;25541;47.458;9.644;2022-08-14T13:25:19;5.63;;;0.60;;
38935;SDS011;25541;47.458;9.644;2022-08-14T13:27:54;2.10;;;0.75;;
38935;SDS011;25541;47.458;9.644;2022-08-14T13:30:24;1.45;;;0.80;;
38935;SDS011;25541;47.458;9.644;2022-08-14T13:32:52;1.42;;;0.75;;
38935;SDS011;25541;47.458;9.644;2022-08-14T13:35:19;3.17;;;0.93;;
38935;SDS011;25541;47.458;9.644;2022-08-14T13:37:45;1.83;;;0.93;;
38935;SDS011;25541;47.458;9.644;2022-08-14T13:40:14;4.07;;;0.68;;
38935;SDS011;25541;47.458;9.644;2022-08-14T13:42:43;3.25;;;0.90;;
38935;SDS011;25541;47.458;9.644;2022-08-14T13:45:10;1.73;;;1.00;;
38935;SDS011;25541;47.458;9.644;2022-08-14T13:47:36;2.22;;;1.10;;
38935;SDS011;25541;47.458;9.644;2022-08-14T13:50:04;1.38;;;0.73;;
38935;SDS011;25541;47.458;9.644;2022-08-14T13:55:07;1.88;;;0.75;;
38935;SDS011;25541;47.458;9.644;2022-08-14T13:57:36;1.77;;;0.73;;
38935;SDS011;25541;47.458;9.644;2022-08-14T14:00:09;1.67;;;0.70;;
38935;SDS011;25541;47.458;9.644;2022-08-14T14:02:40;2.35;;;0.95;;
38935;SDS011;25541;47.458;9.644;2022-08-14T14:05:08;1.45;;;0.73;;
38935;SDS011;25541;47.458;9.644;2022-08-14T14:07:36;2.33;;;0.73;;
38935;SDS011;25541;47.458;9.644;2022-08-14T14:10:05;1.77;;;0.95;;
38935;SDS011;25541;47.458;9.644;2022-08-14T14:12:35;3.72;;;0.70;;
38935;SDS011;25541;47.458;9.644;2022-08-14T14:15:03;1.85;;;0.82;;
38935;SDS011;25541;47.458;9.644;2022-08-14T14:17:35;3.30;;;0.82;;
38935;SDS011;25541;47.458;9.644;2022-08-14T14:20:03;1.60;;;0.98;;
38935;SDS011;25541;47.458;9.644;2022-08-14T14:24:56;1.80;;;1.13;;
38935;SDS011;25541;47.458;9.644;2022-08-14T14:27:23;4.93;;;1.05;;
38935;SDS011;25541;47.458;9.644;2022-08-14T14:29:51;2.03;;;0.73;;
38935;SDS011;25541;47.458;9.644;2022-08-14T14:34:49;1.58;;;0.65;;
38935;SDS011;25541;47.458;9.644;2022-08-14T14:37:18;1.48;;;0.73;;
38935;SDS011;25541;47.458;9.644;2022-08-14T14:39:45;1.73;;;1.10;;
38935;SDS011;25541;47.458;9.644;2022-08-14T14:42:14;2.17;;;0.98;;
38935;SDS011;25541;47.458;9.644;2022-08-14T14:44:43;3.08;;;0.80;;
38935;SDS011;25541;47.458;9.644;2022-08-14T14:47:12;1.83;;;0.77;;
38935;SDS011;25541;47.458;9.644;2022-08-14T14:49:40;6.03;;;0.90;;
38935;SDS011;25541;47.458;9.644;2022-08-14T14:52:07;4.38;;;0.73;;
38935;SDS011;25541;47.458;9.644;2022-08-14T14:54:34;1.65;;;0.90;;
38935;SDS011;25541;47.458;9.644;2022-08-14T14:57:00;4.53;;;1.27;;
38935;SDS011;25541;47.458;9.644;2022-08-14T14:59:28;2.03;;;1.00;;
38935;SDS011;25541;47.458;9.644;2022-08-14T15:01:59;4.18;;;0.73;;
38935;SDS011;25541;47.458;9.644;2022-08-14T15:04:30;2.28;;;0.80;;
38935;SDS011;25541;47.458;9.644;2022-08-14T15:06:59;1.30;;;0.70;;
38935;SDS011;25541;47.458;9.644;2022-08-14T15:09:25;2.75;;;0.75;;
38935;SDS011;25541;47.458;9.644;2022-08-14T15:11:51;1.75;;;0.60;;
38935;SDS011;25541;47.458;9.644;2022-08-14T15:14:16;3.65;;;1.02;;
38935;SDS011;25541;47.458;9.644;2022-08-14T15:16:44;2.40;;;1.10;;
38935;SDS011;25541;47.458;9.644;2022-08-14T15:19:10;3.65;;;0.80;;
38935;SDS011;25541;47.458;9.644;2022-08-14T15:21:36;1.98;;;0.93;;
38935;SDS011;25541;47.458;9.644;2022-08-14T15:24:02;3.58;;;0.93;;
38935;SDS011;25541;47.458;9.644;2022-08-14T15:26:28;4.88;;;1.02;;
38935;SDS011;25541;47.458;9.644;2022-08-14T15:28:54;4.10;;;0.90;;
38935;SDS011;25541;47.458;9.644;2022-08-14T15:31:19;3.28;;;1.30;;
38935;SDS011;25541;47.458;9.644;2022-08-14T15:33:45;2.00;;;1.23;;
38935;SDS011;25541;47.458;9.644;2022-08-14T15:36:29;2.35;;;1.35;;
38935;SDS011;25541;47.458;9.644;2022-08-14T15:38:55;2.60;;;1.20;;
38935;SDS011;25541;47.458;9.644;2022-08-14T15:41:22;2.63;;;1.77;;
38935;SDS011;25541;47.458;9.644;2022-08-14T15:43:48;2.50;;;1.52;;
38935;SDS011;25541;47.458;9.644;2022-08-14T15:46:14;2.50;;;1.23;;
38935;SDS011;25541;47.458;9.644;2022-08-14T15:48:41;2.58;;;1.00;;
38935;SDS011;25541;47.458;9.644;2022-08-14T15:51:08;5.55;;;1.75;;
38935;SDS011;25541;47.458;9.644;2022-08-14T15:53:33;2.38;;;1.45;;
38935;SDS011;25541;47.458;9.644;2022-08-14T15:55:59;2.17;;;1.38;;
38935;SDS011;25541;47.458;9.644;2022-08-14T15:58:25;4.85;;;1.30;;
38935;SDS011;25541;47.458;9.644;2022-08-14T16:00:52;3.25;;;1.35;;
38935;SDS011;25541;47.458;9.644;2022-08-14T16:03:37;4.40;;;1.35;;
38935;SDS011;25541;47.458;9.644;2022-08-14T16:06:07;2.97;;;1.63;;
38935;SDS011;25541;47.458;9.644;2022-08-14T16:08:34;4.20;;;1.42;;
38935;SDS011;25541;47.458;9.644;2022-08-14T16:11:02;5.70;;;1.65;;
38935;SDS011;25541;47.458;9.644;2022-08-14T16:13:30;6.28;;;1.83;;
38935;SDS011;25541;47.458;9.644;2022-08-14T16:15:56;2.67;;;1.20;;
38935;SDS011;25541;47.458;9.644;2022-08-14T16:18:22;5.05;;;2.22;;
38935;SDS011;25541;47.458;9.644;2022-08-14T16:20:49;3.55;;;1.63;;
38935;SDS011;25541;47.458;9.644;2022-08-14T16:23:24;3.45;;;1.58;;
38935;SDS011;25541;47.458;9.644;2022-08-14T16:25:52;2.78;;;1.67;;
38935;SDS011;25541;47.458;9.644;2022-08-14T16:28:34;2.15;;;1.27;;
38935;SDS011;25541;47.458;9.644;2022-08-14T16:31:00;3.42;;;1.13;;
38935;SDS011;25541;47.458;9.644;2022-08-14T16:33:27;2.80;;;1.38;;
38935;SDS011;25541;47.458;9.644;2022-08-14T16:35:53;2.55;;;1.20;;
38935;SDS011;25541;47.458;9.644;2022-08-14T16:38:20;3.72;;;1.45;;
38935;SDS011;25541;47.458;9.644;2022-08-14T16:40:51;2.40;;;1.42;;
38935;SDS011;25541;47.458;9.644;2022-08-14T16:43:39;2.85;;;1.77;;
38935;SDS011;25541;47.458;9.644;2022-08-14T16:46:09;5.10;;;1.45;;
38935;SDS011;25541;47.458;9.644;2022-08-14T16:48:38;4.25;;;1.20;;
38935;SDS011;25541;47.458;9.644;2022-08-14T16:51:04;7.43;;;1.80;;
38935;SDS011;25541;47.458;9.644;2022-08-14T16:53:30;4.78;;;1.42;;
38935;SDS011;25541;47.458;9.644;2022-08-14T16:58:48;2.47;;;1.17;;
38935;SDS011;25541;47.458;9.644;2022-08-14T17:01:26;3.55;;;1.38;;
38935;SDS011;25541;47.458;9.644;2022-08-14T17:03:53;3.22;;;1.23;;
38935;SDS011;25541;47.458;9.644;2022-08-14T17:11:56;3.28;;;1.33;;
38935;SDS011;25541;47.458;9.644;2022-08-14T17:14:49;3.03;;;1.58;;
38935;SDS011;25541;47.458;9.644;2022-08-14T17:17:43;4.72;;;1.27;;
38935;SDS011;25541;47.458;9.644;2022-08-14T17:20:16;2.75;;;1.63;;
38935;SDS011;25541;47.458;9.644;2022-08-14T17:22:49;3.70;;;1.42;;
38935;SDS011;25541;47.458;9.644;2022-08-14T17:25:24;4.78;;;1.58;;
38935;SDS011;25541;47.458;9.644;2022-08-14T17:28:14;3.03;;;1.98;;
38935;SDS011;25541;47.458;9.644;2022-08-14T17:33:28;2.97;;;1.55;;
38935;SDS011;25541;47.458;9.644;2022-08-14T17:38:36;4.90;;;1.58;;
38935;SDS011;25541;47.458;9.644;2022-08-14T17:41:18;3.63;;;1.90;;
38935;SDS011;25541;47.458;9.644;2022-08-14T17:43:51;3.78;;;1.60;;
38935;SDS011;25541;47.458;9.644;2022-08-14T17:49:04;2.33;;;1.63;;
38935;SDS011;25541;47.458;9.644;2022-08-14T17:51:34;3.20;;;1.80;;
38935;SDS011;25541;47.458;9.644;2022-08-14T17:54:16;5.75;;;1.48;;
38935;SDS011;25541;47.458;9.644;2022-08-14T17:56:44;2.83;;;1.50;;
38935;SDS011;25541;47.458;9.644;2022-08-14T17:59:13;2.88;;;1.52;;
38935;SDS011;25541;47.458;9.644;2022-08-14T18:01:40;3.92;;;1.90;;
38935;SDS011;25541;47.458;9.644;2022-08-14T18:04:07;4.55;;;1.42;;
38935;SDS011;25541;47.458;9.644;2022-08-14T18:06:34;3.20;;;1.40;;
38935;SDS011;25541;47.458;9.644;2022-08-14T18:09:01;3.97;;;3.03;;
38935;SDS011;25541;47.458;9.644;2022-08-14T18:11:28;4.40;;;1.52;;
38935;SDS011;25541;47.458;9.644;2022-08-14T18:13:54;3.95;;;1.20;;
38935;SDS011;25541;47.458;9.644;2022-08-14T18:16:23;5.32;;;1.52;;
38935;SDS011;25541;47.458;9.644;2022-08-14T18:18:52;3.33;;;1.65;;
38935;SDS011;25541;47.458;9.644;2022-08-14T18:21:19;4.45;;;1.38;;
38935;SDS011;25541;47.458;9.644;2022-08-14T18:23:47;3.25;;;1.65;;
38935;SDS011;25541;47.458;9.644;2022-08-14T18:26:13;3.85;;;1.83;;
38935;SDS011;25541;47.458;9.644;2022-08-14T18:28:40;3.85;;;1.70;;
38935;SDS011;25541;47.458;9.644;2022-08-14T18:31:28;6.13;;;1.38;;
38935;SDS011;25541;47.458;9.644;2022-08-14T18:33:57;3.13;;;1.48;;
38935;SDS011;25541;47.458;9.644;2022-08-14T18:36:46;2.92;;;1.13;;
38935;SDS011;25541;47.458;9.644;2022-08-14T18:41:54;3.20;;;1.38;;
38935;SDS011;25541;47.458;9.644;2022-08-14T18:47:22;2.92;;;1.42;;
38935;SDS011;25541;47.458;9.644;2022-08-14T18:50:02;5.35;;;1.42;;
38935;SDS011;25541;47.458;9.644;2022-08-14T19:03:07;3.95;;;1.35;;
38935;SDS011;25541;47.458;9.644;2022-08-14T19:05:56;4.75;;;1.65;;
38935;SDS011;25541;47.458;9.644;2022-08-14T19:08:23;5.95;;;1.30;;
38935;SDS011;25541;47.458;9.644;2022-08-14T19:16:07;5.05;;;1.58;;
38935;SDS011;25541;47.458;9.644;2022-08-14T19:18:34;4.05;;;1.45;;
38935;SDS011;25541;47.458;9.644;2022-08-14T19:26:32;4.15;;;1.27;;
38935;SDS011;25541;47.458;9.644;2022-08-14T19:29:16;3.67;;;1.20;;
38935;SDS011;25541;47.458;9.644;2022-08-14T19:32:01;5.15;;;1.65;;
38935;SDS011;25541;47.458;9.644;2022-08-14T19:34:33;5.30;;;1.60;;
38935;SDS011;25541;47.458;9.644;2022-08-14T19:37:10;6.10;;;1.30;;
38935;SDS011;25541;47.458;9.644;2022-08-14T19:42:26;5.57;;;1.40;;
38935;SDS011;25541;47.458;9.644;2022-08-14T19:45:00;4.60;;;1.15;;
38935;SDS011;25541;47.458;9.644;2022-08-14T19:47:35;5.85;;;1.45;;
38935;SDS011;25541;47.458;9.644;2022-08-14T19:50:02;4.65;;;1.48;;
38935;SDS011;25541;47.458;9.644;2022-08-14T19:52:30;2.85;;;1.08;;
38935;SDS011;25541;47.458;9.644;2022-08-14T19:54:58;4.32;;;1.25;;
38935;SDS011;25541;47.458;9.644;2022-08-14T19:57:25;5.07;;;1.40;;
38935;SDS011;25541;47.458;9.644;2022-08-14T20:00:11;3.35;;;1.40;;
38935;SDS011;25541;47.458;9.644;2022-08-14T20:02:42;4.13;;;1.30;;
38935;SDS011;25541;47.458;9.644;2022-08-14T20:05:14;2.85;;;1.52;;
38935;SDS011;25541;47.458;9.644;2022-08-14T20:07:42;3.42;;;1.33;;
38935;SDS011;25541;47.458;9.644;2022-08-14T20:10:26;8.45;;;1.75;;
38935;SDS011;25541;47.458;9.644;2022-08-14T20:12:57;4.32;;;1.52;;
38935;SDS011;25541;47.458;9.644;2022-08-14T20:15:31;4.70;;;1.83;;
38935;SDS011;25541;47.458;9.644;2022-08-14T20:18:00;3.50;;;1.45;;
38935;SDS011;25541;47.458;9.644;2022-08-14T20:20:34;2.75;;;1.23;;
38935;SDS011;25541;47.458;9.644;2022-08-14T20:23:12;4.45;;;1.27;;
38935;SDS011;25541;47.458;9.644;2022-08-14T20:25:40;4.15;;;1.65;;
38935;SDS011;25541;47.458;9.644;2022-08-14T20:28:14;3.10;;;1.52;;
38935;SDS011;25541;47.458;9.644;2022-08-14T20:30:41;3.90;;;1.38;;
38935;SDS011;25541;47.458;9.644;2022-08-14T20:33:08;5.57;;;1.75;;
38935;SDS011;25541;47.458;9.644;2022-08-14T20:35:40;4.32;;;1.50;;
38935;SDS011;25541;47.458;9.644;2022-08-14T20:38:18;4.50;;;1.30;;
38935;SDS011;25541;47.458;9.644;2022-08-14T20:40:56;2.88;;;1.58;;
38935;SDS011;25541;47.458;9.644;2022-08-14T20:43:25;2.83;;;1.30;;
38935;SDS011;25541;47.458;9.644;2022-08-14T20:46:33;6.25;;;1.63;;
38935;SDS011;25541;47.458;9.644;2022-08-14T20:51:34;2.80;;;1.30;;
38935;SDS011;25541;47.458;9.644;2022-08-14T20:54:03;3.78;;;1.52;;
38935;SDS011;25541;47.458;9.644;2022-08-14T20:56:32;6.03;;;1.60;;
38935;SDS011;25541;47.458;9.644;2022-08-14T21:04:23;10.15;;;1.63;;
38935;SDS011;25541;47.458;9.644;2022-08-14T21:06:50;2.92;;;1.58;;
38935;SDS011;25541;47.458;9.644;2022-08-14T21:09:16;9.88;;;1.77;;
38935;SDS011;25541;47.458;9.644;2022-08-14T21:11:45;4.32;;;1.50;;
38935;SDS011;25541;47.458;9.644;2022-08-14T21:14:17;4.30;;;1.30;;
38935;SDS011;25541;47.458;9.644;2022-08-14T21:16:45;4.53;;;1.63;;
38935;SDS011;25541;47.458;9.644;2022-08-14T21:19:12;5.28;;;1.45;;
38935;SDS011;25541;47.458;9.644;2022-08-14T21:21:39;3.67;;;1.30;;
38935;SDS011;25541;47.458;9.644;2022-08-14T21:24:08;4.28;;;1.52;;
38935;SDS011;25541;47.458;9.644;2022-08-14T21:26:36;2.50;;;1.50;;
38935;SDS011;25541;47.458;9.644;2022-08-14T21:29:02;4.13;;;1.65;;
38935;SDS011;25541;47.458;9.644;2022-08-14T21:31:28;3.40;;;1.55;;
38935;SDS011;25541;47.458;9.644;2022-08-14T21:33:54;3.10;;;1.52;;
38935;SDS011;25541;47.458;9.644;2022-08-14T21:36:20;3.50;;;1.55;;
38935;SDS011;25541;47.458;9.644;2022-08-14T21:38:48;4.65;;;1.55;;
38935;SDS011;25541;47.458;9.644;2022-08-14T21:41:15;5.75;;;1.90;;
38935;SDS011;25541;47.458;9.644;2022-08-14T21:43:52;3.97;;;1.83;;
38935;SDS011;25541;47.458;9.644;2022-08-14T21:46:29;6.22;;;1.70;;
38935;SDS011;25541;47.458;9.644;2022-08-14T21:49:10;5.07;;;2.08;;
38935;SDS011;25541;47.458;9.644;2022-08-14T21:51:39;8.93;;;2.00;;
38935;SDS011;25541;47.458;9.644;2022-08-14T21:54:10;3.75;;;1.52;;
38935;SDS011;25541;47.458;9.644;2022-08-14T21:56:40;5.50;;;1.88;;
38935;SDS011;25541;47.458;9.644;2022-08-14T21:59:09;3.15;;;1.30;;
